createdAt,value
2022-07-25T00:11:32.290Z,83.4
2022-07-25T00:31:32.329Z,79.6
2022-07-25T00:51:32.236Z,81.5
2022-07-25T01:11:32.266Z,79.9
2022-07-25T01:31:32.174Z,85.8
2022-07-25T01:51:32.147Z,83.5
2022-07-25T02:11:32.131Z,82.4
2022-07-25T02:31:32.091Z,88.6
2022-07-25T03:11:32.033Z,86.1
2022-07-25T03:31:31.990Z,85.3
2022-07-25T03:51:31.977Z,88.7
2022-07-25T04:11:31.941Z,87.0
2022-07-25T04:31:31.915Z,88.1
2022-07-25T04:51:31.881Z,85.7
2022-07-25T05:11:31.863Z,90.0
2022-07-25T05:31:31.823Z,88.9
2022-07-25T05:51:31.778Z,87.5
2022-07-25T06:11:31.759Z,88.8
2022-07-25T06:31:31.730Z,85.3
2022-07-25T06:51:31.693Z,83.8
2022-07-25T07:11:31.661Z,81.4
2022-07-25T07:31:31.615Z,82.1
2022-07-25T07:51:31.615Z,76.2
2022-07-25T08:11:31.569Z,75.9
2022-07-25T08:31:31.519Z,66.5
2022-07-25T08:51:31.498Z,67.3
2022-07-25T09:11:31.483Z,70.2
2022-07-25T09:31:31.441Z,61.4
2022-07-25T09:51:31.396Z,64.1
2022-07-25T10:11:31.378Z,62.5
2022-07-25T10:31:31.371Z,58.0
2022-07-25T10:51:31.304Z,53.5
2022-07-25T11:11:31.268Z,47.8
2022-07-25T11:31:31.257Z,48.3
2022-07-25T11:51:31.226Z,48.2
2022-07-25T12:11:31.198Z,46.3
2022-07-25T12:31:31.148Z,43.1
2022-07-25T12:51:31.123Z,47.5
2022-07-25T13:31:31.061Z,47.4
2022-07-25T13:51:31.034Z,46.8
2022-07-25T14:11:31.071Z,54.0
2022-07-25T14:31:30.978Z,49.9
2022-07-25T14:51:30.939Z,45.8
2022-07-25T15:11:30.926Z,54.3
2022-07-25T15:31:30.887Z,50.2
2022-07-25T15:51:30.856Z,49.1
2022-07-25T16:11:30.833Z,51.3
2022-07-25T16:31:30.801Z,49.6
2022-07-25T17:31:30.709Z,53.8
2022-07-25T17:51:30.671Z,54.9
2022-07-25T18:11:30.624Z,56.5
2022-07-25T18:31:30.605Z,63.5
2022-07-25T18:51:30.580Z,67.2
2022-07-25T19:11:30.551Z,69.6
2022-07-25T19:31:30.513Z,71.6
2022-07-25T19:51:30.482Z,76.8
2022-07-25T20:11:30.452Z,76.7
2022-07-25T20:31:30.407Z,78.3
2022-07-25T20:51:30.382Z,83.1
2022-07-25T21:11:30.339Z,88.5
2022-07-25T21:31:30.306Z,87.5
2022-07-25T21:51:30.296Z,91.7
2022-07-25T22:11:30.266Z,94.6
2022-07-25T22:31:30.233Z,95.5
2022-07-25T22:51:30.179Z,94.5
2022-07-25T23:11:30.161Z,95.8
2022-07-25T23:31:30.131Z,97.3
